Time;durP1;ratioP1;P1;durP2;ratioP2;P2;SDS_P1;SDS_P2;PMS_P1;PMS_P2;Temp;Humidity;BMP_temperature;BMP_pressure;BME280_temperature;BME280_humidity;BME280_pressure;Samples;Min_cycle;Max_cycle;Signal;HPM_P1;HPM_P2
2022/01/04 00:01:59;;;;;;;1.30;0.90;;;;;;;5.90;75.96;95849.04;107440;1268;37258;-75
2022/01/04 00:04:30;;;;;;;4.50;1.30;;;;;;;5.89;76.37;95841.50;107612;1268;33533;-75
2022/01/04 00:07:01;;;;;;;3.40;0.90;;;;;;;5.87;76.60;95841.86;107784;1268;41626;-74
2022/01/04 00:09:33;;;;;;;1.90;1.00;;;;;;;5.86;76.84;95839.45;107613;1268;44658;-74
2022/01/04 00:14:49;;;;;;;2.40;1.00;;;;;;;5.84;77.34;95835.09;107577;1268;34419;-75
2022/01/04 00:17:20;;;;;;;3.30;1.50;;;;;;;5.79;77.72;95834.09;107668;1266;42378;-74
2022/01/04 00:19:51;;;;;;;3.50;1.50;;;;;;;5.71;77.91;95837.48;107599;1268;34670;-75
2022/01/04 00:22:23;;;;;;;4.40;1.70;;;;;;;5.62;78.45;95839.17;107567;1268;43710;-74
2022/01/04 00:24:54;;;;;;;2.00;1.20;;;;;;;5.57;78.86;95842.13;107677;1268;48816;-74
2022/01/04 00:27:25;;;;;;;5.00;1.60;;;;;;;5.53;79.26;95842.98;107640;1267;38467;-74
2022/01/04 00:29:56;;;;;;;5.60;1.40;;;;;;;5.50;79.78;95838.83;107470;1268;29446;-75
2022/01/04 00:32:27;;;;;;;4.90;1.90;;;;;;;5.44;80.24;95841.02;107560;1268;31092;-75
2022/01/04 00:34:58;;;;;;;2.40;1.70;;;;;;;5.38;80.71;95839.15;107715;1267;45058;-74
2022/01/04 00:37:29;;;;;;;6.40;1.90;;;;;;;5.31;81.24;95831.67;107611;1267;89178;-75
2022/01/04 00:39:59;;;;;;;4.20;1.90;;;;;;;5.24;81.87;95830.91;107533;1268;35724;-74
2022/01/04 00:42:30;;;;;;;5.40;1.80;;;;;;;5.18;82.24;95825.52;107690;1267;33921;-75
2022/01/04 00:45:01;;;;;;;3.40;1.60;;;;;;;5.14;82.60;95819.48;107645;1267;37175;-74
2022/01/04 00:47:44;;;;;;;2.80;1.60;;;;;;;5.11;83.21;95819.50;107449;1268;49751;-74
2022/01/04 00:50:15;;;;;;;4.60;2.30;;;;;;;5.08;83.71;95820.18;107628;1268;30370;-75
2022/01/04 00:52:46;;;;;;;3.80;1.80;;;;;;;5.05;83.55;95825.46;107620;1267;57544;-74
2022/01/04 00:55:17;;;;;;;3.80;1.70;;;;;;;5.03;83.84;95827.20;107710;1267;34813;-74
2022/01/04 00:57:48;;;;;;;3.20;1.40;;;;;;;5.05;83.94;95818.16;107535;1268;35071;-75
2022/01/04 01:00:21;;;;;;;4.00;2.20;;;;;;;5.05;84.27;95817.27;107535;1268;43231;-74
2022/01/04 01:02:52;;;;;;;4.60;2.00;;;;;;;5.03;84.45;95812.23;107715;1267;42424;-75
2022/01/04 01:05:25;;;;;;;4.50;2.30;;;;;;;5.03;84.54;95810.39;107677;1267;31995;-74
2022/01/04 01:07:56;;;;;;;3.00;1.60;;;;;;;5.01;84.67;95814.17;107491;1267;44254;-75
2022/01/04 01:10:44;;;;;;;4.80;1.60;;;;;;;4.99;84.84;95810.77;107650;1267;50968;-74
2022/01/04 01:13:16;;;;;;;3.80;2.00;;;;;;;4.98;85.19;95803.46;107523;1269;41830;-75
2022/01/04 01:15:47;;;;;;;3.00;1.90;;;;;;;4.97;85.37;95804.67;107660;1267;35654;-75
2022/01/04 01:18:20;;;;;;;2.50;1.70;;;;;;;4.96;85.45;95802.00;107490;1268;36677;-75
2022/01/04 01:20:51;;;;;;;4.10;2.00;;;;;;;4.96;85.55;95799.42;107640;1267;42843;-74
2022/01/04 01:23:23;;;;;;;4.00;1.90;;;;;;;4.94;85.44;95793.70;107756;1267;32012;-75
2022/01/04 01:25:54;;;;;;;3.80;2.10;;;;;;;4.94;85.57;95793.17;107522;1268;36052;-74
2022/01/04 01:28:25;;;;;;;2.60;1.40;;;;;;;4.95;85.47;95791.27;107643;1267;36285;-74
2022/01/04 01:30:56;;;;;;;3.80;2.00;;;;;;;4.96;85.56;95789.55;107673;1267;39301;-75
2022/01/04 01:33:27;;;;;;;3.30;1.70;;;;;;;4.96;85.69;95791.02;107724;1267;38605;-74
2022/01/04 01:35:58;;;;;;;2.70;1.80;;;;;;;4.95;85.97;95785.88;107628;1267;47318;-75
2022/01/04 01:38:29;;;;;;;3.10;1.70;;;;;;;4.94;85.86;95777.52;107670;1267;41966;-74
2022/01/04 01:41:01;;;;;;;1.70;1.30;;;;;;;4.93;85.90;95772.21;107718;1267;47194;-75
2022/01/04 01:43:32;;;;;;;2.80;1.20;;;;;;;4.91;86.22;95765.48;107689;1267;33231;-74
2022/01/04 01:46:03;;;;;;;2.20;1.20;;;;;;;4.91;86.39;95762.11;107630;1267;42367;-74
2022/01/04 01:48:34;;;;;;;2.40;1.10;;;;;;;4.89;86.65;95759.49;107751;1267;32800;-74
2022/01/04 01:51:05;;;;;;;1.70;0.80;;;;;;;4.86;86.79;95758.54;107629;1267;44769;-74
2022/01/04 01:53:36;;;;;;;2.70;0.70;;;;;;;4.83;86.95;95751.77;107739;1267;35814;-74
2022/01/04 01:56:07;;;;;;;2.00;1.10;;;;;;;4.81;87.24;95749.63;107614;1267;49505;-74
2022/01/04 01:58:38;;;;;;;1.50;0.70;;;;;;;4.80;87.20;95750.20;107660;1268;43184;-74
2022/01/04 02:01:09;;;;;;;2.50;1.00;;;;;;;4.77;87.69;95743.20;107740;1267;35646;-74
2022/01/04 02:03:41;;;;;;;2.70;0.70;;;;;;;4.74;87.69;95744.89;107614;1268;29713;-75
2022/01/04 02:06:12;;;;;;;0.90;0.80;;;;;;;4.73;88.07;95737.75;107738;1267;32311;-74
2022/01/04 02:08:43;;;;;;;1.40;0.90;;;;;;;4.71;88.03;95738.37;107665;1267;47665;-75
2022/01/04 02:11:15;;;;;;;1.30;0.90;;;;;;;4.70;88.57;95735.02;107617;1267;42559;-75
2022/01/04 02:13:45;;;;;;;0.70;0.70;;;;;;;4.69;88.75;95731.98;107690;1267;37644;-74
2022/01/04 02:16:17;;;;;;;2.20;1.00;;;;;;;4.66;88.88;95728.55;107732;1267;31764;-75
2022/01/04 02:18:47;;;;;;;1.90;0.50;;;;;;;4.64;89.00;95729.17;107598;1267;45371;-75
2022/01/04 02:21:18;;;;;;;1.50;0.80;;;;;;;4.63;89.16;95725.17;107643;1267;33241;-75
2022/01/04 02:23:49;;;;;;;1.00;0.80;;;;;;;4.63;89.26;95724.86;107687;1267;42680;-75
2022/01/04 02:26:20;;;;;;;1.60;0.80;;;;;;;4.62;89.31;95725.77;107703;1267;34189;-75
2022/01/04 02:28:52;;;;;;;0.90;0.50;;;;;;;4.65;89.34;95716.48;107668;1266;44939;-75
2022/01/04 02:31:23;;;;;;;0.30;0.20;;;;;;;4.65;89.43;95715.65;107652;1267;32661;-75
2022/01/04 02:33:54;;;;;;;0.90;0.40;;;;;;;4.65;89.56;95709.98;107614;1267;31398;-75
2022/01/04 02:36:25;;;;;;;0.90;0.50;;;;;;;4.64;89.48;95706.02;107643;1267;44756;-75
2022/01/04 02:38:56;;;;;;;1.00;0.30;;;;;;;4.64;89.61;95703.04;107542;1267;44387;-75
2022/01/04 02:41:27;;;;;;;0.80;0.40;;;;;;;4.65;89.80;95696.91;107557;1268;44719;-75
2022/01/04 02:43:57;;;;;;;1.00;0.40;;;;;;;4.64;89.82;95687.39;107548;1267;41367;-75
2022/01/04 02:46:28;;;;;;;1.20;0.40;;;;;;;4.61;89.92;95685.70;107595;1267;50741;-75
2022/01/04 02:48:59;;;;;;;1.80;0.70;;;;;;;4.61;90.02;95677.25;107452;1268;42832;-75
2022/01/04 02:51:30;;;;;;;0.40;0.40;;;;;;;4.61;89.91;95672.37;107648;1267;43235;-75
2022/01/04 02:54:00;;;;;;;1.20;0.50;;;;;;;4.61;90.17;95670.11;107635;1267;43994;-75
2022/01/04 02:56:31;;;;;;;3.90;0.70;;;;;;;4.59;90.27;95668.80;107665;1267;35258;-75
2022/01/04 02:59:03;;;;;;;1.60;0.70;;;;;;;4.59;90.51;95665.55;107572;1267;34752;-75
2022/01/04 03:01:34;;;;;;;1.80;0.70;;;;;;;4.57;90.63;95667.81;107536;1268;33881;-75
2022/01/04 03:04:07;;;;;;;1.30;0.90;;;;;;;4.57;90.82;95665.55;107448;1269;51024;-74
2022/01/04 03:06:38;;;;;;;2.10;0.80;;;;;;;4.56;91.06;95661.25;107704;1267;48912;-75
2022/01/04 03:09:10;;;;;;;1.10;0.70;;;;;;;4.56;91.09;95655.16;107718;1267;49536;-74
2022/01/04 03:11:41;;;;;;;1.80;1.00;;;;;;;4.57;91.16;95651.02;107616;1266;173569;-75
2022/01/04 03:14:11;;;;;;;1.00;0.60;;;;;;;4.58;91.31;95647.23;107755;1267;37463;-75
2022/01/04 03:16:42;;;;;;;1.40;0.90;;;;;;;4.61;91.38;95634.89;107755;1267;33612;-75
2022/01/04 03:19:13;;;;;;;1.50;0.70;;;;;;;4.61;91.34;95632.05;107637;1267;43805;-76
2022/01/04 03:21:45;;;;;;;0.80;0.70;;;;;;;4.60;91.60;95630.80;107605;1267;33032;-75
2022/01/04 03:24:17;;;;;;;0.60;0.60;;;;;;;4.60;91.65;95627.17;107604;1267;48755;-74
2022/01/04 03:26:48;;;;;;;1.20;0.40;;;;;;;4.58;91.69;95616.63;107552;1268;42933;-75
2022/01/04 03:29:19;;;;;;;0.50;0.40;;;;;;;4.60;91.78;95615.73;107665;1266;40425;-74
2022/01/04 03:31:52;;;;;;;1.50;0.40;;;;;;;4.65;91.88;95615.20;107519;1268;42148;-75
2022/01/04 03:34:22;;;;;;;0.40;0.40;;;;;;;4.65;91.73;95607.70;107630;1267;38467;-74
2022/01/04 03:36:53;;;;;;;1.00;0.50;;;;;;;4.66;91.61;95599.25;107614;1267;42027;-75
2022/01/04 03:39:24;;;;;;;1.20;0.40;;;;;;;4.67;91.66;95598.45;107681;1267;33601;-74
2022/01/04 03:41:55;;;;;;;0.50;0.40;;;;;;;4.69;91.66;95588.79;107534;1268;28467;-75
2022/01/04 03:44:26;;;;;;;0.80;0.50;;;;;;;4.72;91.44;95586.52;107672;1267;46462;-74
2022/01/04 03:46:57;;;;;;;1.40;0.80;;;;;;;4.69;91.62;95590.20;107708;1267;41496;-74
2022/01/04 03:49:28;;;;;;;2.00;0.90;;;;;;;4.65;91.85;95586.70;107600;1267;41173;-74
2022/01/04 03:51:59;;;;;;;1.30;0.90;;;;;;;4.63;92.03;95582.85;107548;1268;38330;-75
2022/01/04 03:54:30;;;;;;;1.30;0.80;;;;;;;4.62;92.05;95586.64;107717;1265;33043;-75
2022/01/04 03:57:01;;;;;;;1.60;0.80;;;;;;;4.60;92.30;95580.30;107692;1267;32710;-74
2022/01/04 03:59:31;;;;;;;1.60;1.20;;;;;;;4.59;92.30;95579.88;107729;1267;36400;-74
2022/01/04 04:02:02;;;;;;;0.90;0.60;;;;;;;4.61;92.54;95572.27;107704;1267;30668;-74
2022/01/04 04:04:33;;;;;;;1.90;0.90;;;;;;;4.61;92.53;95576.20;107503;1269;42168;-74
2022/01/04 04:07:04;;;;;;;1.60;1.00;;;;;;;4.60;92.53;95569.05;107509;1268;42526;-75
2022/01/04 04:09:36;;;;;;;3.40;1.20;;;;;;;4.59;92.74;95571.95;107563;1268;31311;-74
2022/01/04 04:12:09;;;;;;;1.10;0.80;;;;;;;4.60;92.79;95564.17;107680;1267;38568;-74
2022/01/04 04:14:40;;;;;;;2.30;1.30;;;;;;;4.59;92.84;95561.09;107756;1267;43693;-74
2022/01/04 04:17:11;;;;;;;1.40;1.10;;;;;;;4.59;92.84;95559.24;107645;1267;43771;-74
2022/01/04 04:19:42;;;;;;;2.10;1.20;;;;;;;4.59;93.20;95565.23;107694;1267;34317;-74
2022/01/04 04:22:12;;;;;;;1.80;1.20;;;;;;;4.60;93.20;95561.18;107789;1267;32170;-75
2022/01/04 04:24:44;;;;;;;1.80;1.20;;;;;;;4.61;93.24;95557.81;107654;1267;48462;-74
2022/01/04 04:27:15;;;;;;;1.60;1.40;;;;;;;4.62;93.22;95557.66;107554;1267;43314;-74
2022/01/04 04:29:46;;;;;;;1.80;1.20;;;;;;;4.62;93.24;95557.34;107656;1268;29948;-75
2022/01/04 04:32:17;;;;;;;2.20;1.20;;;;;;;4.62;93.27;95556.73;107620;1267;45123;-74
2022/01/04 04:34:48;;;;;;;1.70;1.30;;;;;;;4.63;93.34;95559.80;107633;1267;41260;-74
2022/01/04 04:37:19;;;;;;;2.10;1.40;;;;;;;4.64;93.52;95557.60;107638;1267;40394;-74
2022/01/04 04:39:50;;;;;;;5.90;1.40;;;;;;;4.65;93.59;95560.81;107619;1264;39898;-74
2022/01/04 04:42:20;;;;;;;3.50;1.20;;;;;;;4.68;93.69;95562.44;107726;1267;30629;-74
2022/01/04 04:44:51;;;;;;;2.00;1.30;;;;;;;4.71;93.81;95562.11;107654;1267;38735;-74
2022/01/04 04:47:22;;;;;;;1.60;1.30;;;;;;;4.73;93.75;95561.89;107620;1267;42958;-74
2022/01/04 04:49:53;;;;;;;3.10;1.40;;;;;;;4.75;93.77;95561.94;107747;1267;34715;-75
2022/01/04 04:52:25;;;;;;;2.60;1.10;;;;;;;4.79;93.87;95553.95;107465;1268;37887;-74
2022/01/04 04:54:56;;;;;;;2.40;1.10;;;;;;;4.85;93.83;95550.48;107659;1265;31288;-74
2022/01/04 04:57:26;;;;;;;1.80;1.00;;;;;;;4.91;93.85;95543.56;107642;1268;33546;-74
2022/01/04 04:59:57;;;;;;;1.40;0.90;;;;;;;4.94;93.79;95535.59;107599;1267;42552;-74
2022/01/04 05:02:28;;;;;;;1.30;0.70;;;;;;;4.96;93.59;95526.28;107524;1269;39113;-74
2022/01/04 05:04:59;;;;;;;3.60;0.40;;;;;;;5.00;93.52;95516.06;107642;1267;40548;-74
2022/01/04 05:07:30;;;;;;;0.90;0.60;;;;;;;5.14;93.78;95511.33;107685;1265;43481;-74
2022/01/04 05:10:01;;;;;;;1.10;0.50;;;;;;;5.25;93.40;95512.64;107683;1267;43218;-74
2022/01/04 05:12:31;;;;;;;0.30;0.30;;;;;;;5.35;93.23;95510.64;107582;1268;43094;-74
2022/01/04 05:15:03;;;;;;;0.20;0.20;;;;;;;5.41;93.00;95504.77;107704;1267;34156;-74
2022/01/04 05:17:34;;;;;;;1.10;0.30;;;;;;;5.46;92.73;95506.21;107674;1267;45117;-75
2022/01/04 05:20:06;;;;;;;0.30;0.20;;;;;;;5.54;92.37;95512.52;107489;1268;46803;-74
2022/01/04 05:22:37;;;;;;;0.40;0.40;;;;;;;5.59;92.23;95511.95;107667;1267;30374;-74
2022/01/04 05:25:10;;;;;;;1.70;0.80;;;;;;;5.63;91.84;95510.73;107551;1269;61688;-75
2022/01/04 05:27:41;;;;;;;0.80;0.70;;;;;;;5.62;91.65;95507.78;107757;1267;41679;-74
2022/01/04 05:30:12;;;;;;;0.80;0.50;;;;;;;5.58;91.45;95509.66;107761;1267;40936;-74
2022/01/04 05:32:43;;;;;;;0.80;0.40;;;;;;;5.55;91.41;95509.95;107636;1267;32376;-75
2022/01/04 05:35:14;;;;;;;1.10;0.40;;;;;;;5.62;91.30;95507.80;107697;1266;38715;-75
2022/01/04 05:37:45;;;;;;;0.70;0.60;;;;;;;5.68;91.35;95510.33;107530;1268;30737;-75
2022/01/04 05:40:14;;;;;;;;;;;;;;;5.68;90.87;95507.02;107492;1268;47719;-75
2022/01/04 05:42:45;;;;;;;0.70;0.40;;;;;;;5.76;90.31;95503.85;107646;1267;44214;-75
2022/01/04 05:45:16;;;;;;;0.50;0.30;;;;;;;5.77;90.30;95497.91;107659;1267;35178;-74
2022/01/04 05:47:46;;;;;;;0.30;0.20;;;;;;;5.73;89.98;95491.52;107574;1267;34556;-75
2022/01/04 05:50:17;;;;;;;0.80;0.40;;;;;;;5.75;89.76;95494.43;107708;1267;35782;-74
2022/01/04 05:52:48;;;;;;;1.30;0.80;;;;;;;5.76;89.91;95497.48;107694;1267;43680;-75
2022/01/04 05:55:19;;;;;;;1.20;0.90;;;;;;;5.70;89.87;95491.54;107536;1266;106726;-75
2022/01/04 05:57:49;;;;;;;1.90;1.60;;;;;;;5.59;89.84;95491.19;107530;1264;80296;-74
2022/01/04 06:00:21;;;;;;;4.60;1.70;;;;;;;5.50;90.17;95491.02;107608;1267;51130;-75
2022/01/04 06:02:52;;;;;;;2.00;1.20;;;;;;;5.43;90.31;95491.04;107696;1267;31189;-75
2022/01/04 06:05:23;;;;;;;3.50;1.50;;;;;;;5.38;90.55;95488.08;107528;1265;51695;-75
2022/01/04 06:07:54;;;;;;;1.60;1.20;;;;;;;5.33;90.91;95483.47;107731;1267;37164;-75
2022/01/04 06:10:25;;;;;;;2.90;1.30;;;;;;;5.30;91.15;95476.60;107649;1267;41557;-75
2022/01/04 06:15:44;;;;;;;4.80;2.20;;;;;;;5.30;91.45;95478.59;107640;1267;41015;-75
2022/01/04 06:18:14;;;;;;;3.00;1.80;;;;;;;5.31;91.52;95481.17;107594;1268;29042;-74
2022/01/04 06:20:46;;;;;;;2.60;1.80;;;;;;;5.31;91.45;95484.11;107667;1267;32141;-74
2022/01/04 06:23:17;;;;;;;2.50;1.10;;;;;;;5.33;91.52;95482.25;107437;1269;44008;-75
2022/01/04 06:25:48;;;;;;;1.00;0.70;;;;;;;5.32;91.24;95482.48;107593;1267;35431;-74
2022/01/04 06:28:19;;;;;;;2.50;1.30;;;;;;;5.32;91.21;95482.31;107616;1267;41456;-75
2022/01/04 06:30:52;;;;;;;1.30;1.10;;;;;;;5.33;91.11;95471.64;107661;1267;47631;-75
2022/01/04 06:33:24;;;;;;;1.90;1.10;;;;;;;5.32;91.11;95474.12;107611;1264;44215;-75
2022/01/04 06:35:54;;;;;;;1.30;0.90;;;;;;;5.31;91.08;95485.70;107654;1267;43141;-74
2022/01/04 06:38:25;;;;;;;3.20;1.20;;;;;;;5.30;90.96;95476.50;107491;1269;30173;-75
2022/01/04 06:40:56;;;;;;;1.20;0.70;;;;;;;5.33;91.22;95483.58;107562;1267;37854;-75
2022/01/04 06:43:27;;;;;;;2.40;1.20;;;;;;;5.35;90.94;95488.94;107653;1267;40887;-74
2022/01/04 06:45:58;;;;;;;0.60;0.60;;;;;;;5.36;91.03;95482.52;107659;1266;43044;-74
2022/01/04 06:48:28;;;;;;;1.50;0.70;;;;;;;5.37;90.86;95471.95;107688;1264;33033;-74
2022/01/04 06:50:59;;;;;;;1.20;0.80;;;;;;;5.40;90.86;95469.88;107653;1267;33469;-74
2022/01/04 06:53:30;;;;;;;1.40;0.90;;;;;;;5.41;90.64;95468.52;107641;1267;34788;-74
2022/01/04 06:56:01;;;;;;;1.20;0.80;;;;;;;5.42;90.61;95459.35;107632;1267;47762;-74
2022/01/04 06:58:33;;;;;;;2.80;1.10;;;;;;;5.47;90.22;95459.45;107657;1267;33098;-74
2022/01/04 07:01:04;;;;;;;2.10;1.10;;;;;;;5.50;90.21;95460.41;107695;1267;29732;-75
2022/01/04 07:03:35;;;;;;;1.00;0.70;;;;;;;5.52;90.02;95457.45;107621;1267;42857;-74
2022/01/04 07:06:07;;;;;;;2.00;0.90;;;;;;;5.54;89.80;95462.90;107629;1266;42949;-74
2022/01/04 07:08:38;;;;;;;2.80;1.10;;;;;;;5.57;89.85;95456.98;107706;1267;35556;-74
2022/01/04 07:11:10;;;;;;;2.20;1.40;;;;;;;5.61;89.83;95451.05;107629;1267;47208;-75
2022/01/04 07:13:41;;;;;;;1.60;0.90;;;;;;;5.62;89.61;95447.73;107694;1267;34503;-74
2022/01/04 07:16:13;;;;;;;2.10;1.30;;;;;;;5.62;89.52;95442.10;107609;1267;30815;-74
2022/01/04 07:18:48;;;;;;;1.30;0.90;;;;;;;5.63;89.48;95448.89;107614;1267;32677;-75
2022/01/04 07:21:20;;;;;;;1.80;0.80;;;;;;;5.65;89.12;95440.41;107719;1267;33134;-75
2022/01/04 07:23:54;;;;;;;1.30;1.00;;;;;;;5.69;89.09;95438.02;107599;1266;40158;-75
2022/01/04 07:26:26;;;;;;;2.10;0.70;;;;;;;5.73;88.82;95437.08;107561;1268;32209;-74
2022/01/04 07:28:57;;;;;;;0.40;0.40;;;;;;;5.78;88.55;95424.59;107614;1267;40663;-75
2022/01/04 07:31:28;;;;;;;1.80;0.60;;;;;;;5.81;88.50;95428.45;106095;1269;2000585;-74
2022/01/04 07:33:59;;;;;;;1.20;0.40;;;;;;;5.84;87.85;95423.48;107613;1267;41042;-74
2022/01/04 07:36:32;;;;;;;0.20;0.20;;;;;;;5.87;87.77;95417.66;107655;1267;35155;-74
2022/01/04 07:39:03;;;;;;;0.30;0.30;;;;;;;5.94;86.99;95405.95;107728;1267;33424;-75
2022/01/04 07:41:35;;;;;;;0.60;0.50;;;;;;;6.03;86.52;95400.91;107534;1267;53890;-74
2022/01/04 07:44:06;;;;;;;1.40;0.30;;;;;;;6.07;86.19;95400.73;107584;1267;43689;-74
2022/01/04 07:46:38;;;;;;;0.40;0.20;;;;;;;6.09;85.92;95393.17;107620;1267;35825;-74
2022/01/04 07:49:09;;;;;;;0.70;0.50;;;;;;;6.10;85.62;95383.48;107727;1267;37743;-74
2022/01/04 07:51:40;;;;;;;1.30;0.60;;;;;;;6.10;85.70;95377.64;107525;1268;39570;-74
2022/01/04 07:54:11;;;;;;;1.80;0.80;;;;;;;6.11;85.55;95369.95;107809;1267;41852;-74
2022/01/04 07:56:42;;;;;;;0.50;0.40;;;;;;;6.09;85.40;95372.14;107669;1267;47163;-74
2022/01/04 07:59:14;;;;;;;1.40;0.60;;;;;;;6.11;85.08;95371.26;107503;1268;40197;-74
2022/01/04 08:01:45;;;;;;;0.70;0.40;;;;;;;6.18;85.18;95376.65;107624;1267;46892;-74
2022/01/04 08:04:16;;;;;;;0.60;0.30;;;;;;;6.22;85.16;95371.73;107641;1267;38537;-74
2022/01/04 08:06:48;;;;;;;1.00;0.50;;;;;;;6.26;84.90;95363.25;107586;1267;117123;-74
2022/01/04 08:09:20;;;;;;;2.40;0.50;;;;;;;6.31;85.07;95356.67;107568;1267;34601;-74
2022/01/04 08:11:51;;;;;;;1.20;0.80;;;;;;;6.35;84.60;95339.05;107591;1267;42251;-74
2022/01/04 08:14:23;;;;;;;1.50;0.30;;;;;;;6.40;84.22;95333.18;107671;1267;31916;-74
2022/01/04 08:16:54;;;;;;;1.00;0.70;;;;;;;6.49;83.55;95331.43;107635;1267;33786;-74
2022/01/04 08:19:25;;;;;;;1.70;1.00;;;;;;;6.59;83.32;95344.16;107535;1268;41167;-74
2022/01/04 08:22:00;;;;;;;1.50;0.70;;;;;;;6.65;83.37;95344.40;107729;1266;42768;-74
2022/01/04 08:24:32;;;;;;;0.70;0.30;;;;;;;6.71;83.15;95334.63;107738;1267;39455;-74
2022/01/04 08:27:03;;;;;;;0.40;0.20;;;;;;;6.74;82.43;95325.73;107532;1267;44170;-74
2022/01/04 08:29:35;;;;;;;0.50;0.40;;;;;;;6.75;82.11;95328.93;107537;1268;47309;-74
2022/01/04 08:32:07;;;;;;;1.90;0.60;;;;;;;6.77;82.35;95321.86;107572;1268;31980;-74
2022/01/04 08:34:38;;;;;;;2.90;1.00;;;;;;;6.78;82.14;95316.57;107674;1267;38269;-74
2022/01/04 08:37:09;;;;;;;0.70;0.30;;;;;;;6.78;82.54;95314.61;107524;1268;43448;-74
2022/01/04 08:39:40;;;;;;;1.10;0.60;;;;;;;6.77;82.43;95307.05;107710;1267;30829;-74
2022/01/04 08:42:12;;;;;;;1.40;0.70;;;;;;;6.72;82.40;95303.48;107646;1269;30034;-74
2022/01/04 08:44:43;;;;;;;1.80;1.20;;;;;;;6.68;82.25;95296.59;107730;1267;39768;-74
2022/01/04 08:47:14;;;;;;;3.60;1.50;;;;;;;6.63;82.35;95294.66;107649;1267;37656;-74
2022/01/04 08:49:45;;;;;;;2.20;1.00;;;;;;;6.60;82.59;95292.64;107709;1267;40140;-74
2022/01/04 08:52:16;;;;;;;3.90;1.10;;;;;;;6.57;82.88;95282.31;107515;1267;47562;-74
2022/01/04 08:54:48;;;;;;;2.50;1.00;;;;;;;6.55;82.94;95279.27;107668;1267;41211;-74
2022/01/04 08:57:19;;;;;;;2.60;1.50;;;;;;;6.53;82.77;95269.30;107703;1267;33791;-74
2022/01/04 08:59:54;;;;;;;2.20;1.10;;;;;;;6.52;82.97;95267.69;107595;1267;37784;-74
2022/01/04 09:02:26;;;;;;;2.40;1.70;;;;;;;6.52;83.05;95257.01;107634;1267;43022;-74
2022/01/04 09:04:59;;;;;;;3.90;1.60;;;;;;;6.51;83.17;95247.06;107643;1267;31656;-74
2022/01/04 09:07:34;;;;;;;2.70;1.60;;;;;;;6.52;83.13;95237.33;107612;1267;46083;-74
2022/01/04 09:10:08;;;;;;;2.40;1.10;;;;;;;6.51;82.97;95237.85;107655;1267;43676;-75
2022/01/04 09:12:51;;;;;;;2.00;1.50;;;;;;;6.54;83.33;95224.75;107567;1268;46333;-75
2022/01/04 09:15:46;;;;;;;3.40;1.30;;;;;;;6.58;83.44;95221.16;107585;1267;37965;-74
2022/01/04 09:21:07;;;;;;;2.00;1.00;;;;;;;6.63;83.30;95212.72;107694;1267;34235;-74
2022/01/04 09:23:39;;;;;;;2.30;0.80;;;;;;;6.66;83.19;95202.45;107782;1266;33895;-74
2022/01/04 09:26:10;;;;;;;3.00;1.10;;;;;;;6.68;83.05;95196.98;107649;1267;36710;-74
2022/01/04 09:28:43;;;;;;;1.30;0.80;;;;;;;6.72;83.12;95174.70;107721;1267;32663;-75
2022/01/04 09:31:14;;;;;;;1.80;0.80;;;;;;;6.74;83.24;95177.51;107705;1267;37830;-75
2022/01/04 09:33:46;;;;;;;1.50;1.10;;;;;;;6.74;83.27;95167.88;107551;1267;44880;-75
2022/01/04 09:36:17;;;;;;;1.40;0.60;;;;;;;6.78;83.01;95166.18;107686;1267;35193;-75
2022/01/04 09:38:49;;;;;;;1.00;0.50;;;;;;;6.82;82.88;95158.80;107721;1267;30660;-74
2022/01/04 09:41:21;;;;;;;0.50;0.40;;;;;;;6.84;82.79;95153.84;107637;1267;36927;-75
2022/01/04 09:43:54;;;;;;;1.10;0.30;;;;;;;6.87;82.82;95156.59;107591;1267;35269;-75
2022/01/04 09:46:26;;;;;;;2.30;0.60;;;;;;;6.89;82.81;95140.95;107612;1267;37234;-74
2022/01/04 09:48:59;;;;;;;1.70;0.40;;;;;;;6.92;82.60;95146.73;107658;1267;36551;-74
2022/01/04 09:51:31;;;;;;;0.80;0.60;;;;;;;6.96;82.44;95142.31;107443;1268;80792;-74
2022/01/04 09:54:02;;;;;;;2.10;0.70;;;;;;;6.99;82.39;95133.60;107691;1267;32813;-74
2022/01/04 09:56:33;;;;;;;0.80;0.40;;;;;;;7.02;82.44;95139.92;107633;1267;89157;-74
2022/01/04 09:59:05;;;;;;;0.80;0.30;;;;;;;7.06;82.06;95122.70;107416;1267;90933;-74
2022/01/04 10:01:39;;;;;;;10.60;5.00;;;;;;;7.12;81.96;95127.78;107579;1267;39820;-74
2022/01/04 10:04:11;;;;;;;9.30;4.20;;;;;;;7.16;82.26;95125.55;107813;1266;40435;-74
2022/01/04 10:06:56;;;;;;;10.30;4.30;;;;;;;7.19;81.84;95120.77;107786;1267;33340;-74
2022/01/04 10:09:37;;;;;;;1.40;0.80;;;;;;;7.24;81.71;95118.34;107675;1267;36382;-74
2022/01/04 10:12:10;;;;;;;1.50;0.60;;;;;;;7.29;81.73;95113.70;107603;1268;32560;-74
2022/01/04 10:14:44;;;;;;;10.30;5.80;;;;;;;7.33;81.55;95103.68;107775;1267;37886;-74
2022/01/04 10:17:17;;;;;;;1.50;1.10;;;;;;;7.37;81.58;95093.11;107475;1267;39942;-75
2022/01/04 10:19:50;;;;;;;8.80;4.80;;;;;;;7.39;81.43;95087.95;107583;1267;46889;-74
2022/01/04 10:22:24;;;;;;;5.40;2.60;;;;;;;7.43;81.20;95078.00;107666;1267;41427;-74
2022/01/04 10:25:12;;;;;;;0.50;0.30;;;;;;;7.45;81.45;95067.36;107665;1267;38063;-74
2022/01/04 10:27:45;;;;;;;0.80;0.50;;;;;;;7.46;81.09;95063.34;107658;1267;206241;-74
2022/01/04 10:30:23;;;;;;;1.70;0.80;;;;;;;7.48;81.24;95053.80;107637;1267;36004;-74
2022/01/04 10:32:58;;;;;;;1.50;0.90;;;;;;;7.52;81.18;95054.52;107628;1266;32350;-75
2022/01/04 10:35:36;;;;;;;1.70;0.80;;;;;;;7.55;80.93;95063.82;107521;1269;41214;-75
2022/01/04 10:38:16;;;;;;;0.90;0.50;;;;;;;7.59;80.81;95050.35;107631;1267;36508;-74
2022/01/04 10:40:47;;;;;;;;;;;;;;;7.62;80.84;95053.51;107756;1267;41743;-74
2022/01/04 10:43:20;;;;;;;1.50;0.70;;;;;;;7.65;80.58;95040.14;107677;1267;41589;-74
2022/01/04 10:45:53;;;;;;;1.00;0.50;;;;;;;7.68;80.69;95054.31;107663;1266;41003;-75
2022/01/04 10:48:27;;;;;;;1.90;0.40;;;;;;;7.72;80.43;95051.90;107473;1268;44630;-74
2022/01/04 10:51:00;;;;;;;0.70;0.50;;;;;;;7.77;80.14;95040.22;107537;1268;36275;-75
2022/01/04 10:53:34;;;;;;;1.60;0.90;;;;;;;7.80;79.99;95040.14;107625;1266;44563;-75
2022/01/04 10:56:08;;;;;;;1.30;0.40;;;;;;;7.84;79.68;95038.03;107701;1267;44133;-74
2022/01/04 10:58:41;;;;;;;0.90;0.60;;;;;;;7.88;79.40;95033.94;107496;1269;44575;-75
2022/01/04 11:01:14;;;;;;;0.50;0.40;;;;;;;7.92;79.41;95032.36;107623;1267;45805;-74
2022/01/04 11:03:48;;;;;;;0.90;0.70;;;;;;;7.98;79.30;95027.79;107688;1267;41021;-75
2022/01/04 11:06:25;;;;;;;4.90;3.90;;;;;;;8.02;79.14;95025.00;107672;1267;36994;-75
2022/01/04 11:08:57;;;;;;;0.60;0.40;;;;;;;8.07;78.95;95027.48;107476;1268;41941;-74
2022/01/04 11:11:28;;;;;;;0.70;0.40;;;;;;;8.08;78.96;95018.49;107524;1268;44685;-74
2022/01/04 11:14:00;;;;;;;1.70;0.50;;;;;;;8.06;78.95;95007.28;107578;1267;41005;-74
2022/01/04 11:16:32;;;;;;;1.40;0.80;;;;;;;8.07;78.78;95011.60;107482;1269;45421;-74
2022/01/04 11:19:04;;;;;;;1.60;0.60;;;;;;;8.08;78.68;95005.33;107568;1268;39511;-74
2022/01/04 11:21:36;;;;;;;2.60;0.40;;;;;;;8.09;78.55;95001.95;107565;1268;44391;-74
2022/01/04 11:24:13;;;;;;;0.80;0.50;;;;;;;8.09;78.57;95010.05;107560;1268;35086;-74
2022/01/04 11:26:45;;;;;;;1.00;0.60;;;;;;;8.09;78.50;94997.69;107557;1268;32764;-75
2022/01/04 11:29:18;;;;;;;0.90;0.60;;;;;;;8.08;78.53;95000.73;107576;1268;40075;-75
2022/01/04 11:32:00;;;;;;;1.00;0.50;;;;;;;8.09;78.64;94991.27;107587;1268;34435;-74
2022/01/04 11:34:51;;;;;;;0.30;0.30;;;;;;;8.09;78.40;94991.95;107619;1268;35373;-74
2022/01/04 11:37:24;;;;;;;1.90;1.60;;;;;;;8.11;78.41;94985.20;107539;1268;54022;-75
2022/01/04 11:39:56;;;;;;;1.20;0.50;;;;;;;8.16;78.16;94979.91;107610;1268;27953;-74
2022/01/04 11:42:39;;;;;;;0.60;0.30;;;;;;;8.19;78.08;94970.87;107600;1268;38268;-74
2022/01/04 11:45:12;;;;;;;1.20;0.50;;;;;;;8.23;77.84;94967.13;107599;1268;47357;-74
2022/01/04 11:47:49;;;;;;;1.30;0.50;;;;;;;8.27;77.65;94967.41;107601;1268;29979;-75
2022/01/04 11:50:21;;;;;;;0.30;0.20;;;;;;;8.30;77.60;94967.83;107610;1268;30276;-74
2022/01/04 11:52:55;;;;;;;0.40;0.20;;;;;;;8.30;77.51;94955.45;107549;1269;33305;-74
2022/01/04 11:55:29;;;;;;;0.30;0.30;;;;;;;8.27;77.84;94950.46;107607;1268;31000;-74
2022/01/04 11:58:03;;;;;;;0.70;0.50;;;;;;;8.24;78.06;94944.95;107538;1269;34293;-74
2022/01/04 12:00:38;;;;;;;0.70;0.50;;;;;;;8.24;78.05;94936.19;107533;1267;41751;-74
2022/01/04 12:03:12;;;;;;;1.10;0.40;;;;;;;8.26;77.85;94937.48;107581;1268;44205;-74
2022/01/04 12:06:01;;;;;;;1.60;0.40;;;;;;;8.23;78.26;94930.42;107731;1268;31942;-74